Latest Weather Observations for Roseworthy

IDS60901

Issued at 10:01 am CST Tuesday 26 July 2016 (issued every 10 minutes, with the page automatically refreshed every 10 minutes)

About weather observations | Map of Adelaide area stations | Latest observations for Adelaide area | Other Formats
Station Details ID: 023122 Name: ROSEWORTHY AWS Lat: -34.51 Lon: 138.68 Height: 65.0 m
Data from the previous 72 hours. | See also: Recent months at Roseworthy
Date/Time
CST
Temp
°C
App
Temp
°C
Dew
Point
°C
Rel
Hum
%
Delta-T
°C
Wind Press
QNH
hPa
Press
MSL
hPa
Rain since
9am
mm
Dir  Spd
km/h
Gust
km/h
Spd
kts
Gust
kts
26/10:00am 10.1 4.1 7.0 81 1.5 NNW 28 35 15 19 1015.8 - 0.0
26/09:30am 9.3 3.7 7.3 87 0.9 NNW 26 35 14 19 1015.7 - 0.0
26/09:00am 8.3 3.2 5.9 85 1.1 NNW 22 28 12 15 1015.7 1015.9 8.2
26/08:30am 6.9 2.1 4.9 87 0.9 NNW 19 24 10 13 1015.8 - 8.2
26/08:00am 5.6 0.5 3.9 89 0.7 NNW 20 24 11 13 1015.8 - 8.2
26/07:30am 4.9 -0.1 3.4 90 0.6 NNW 19 22 10 12 1015.9 - 8.2
26/07:00am 4.9 0.3 3.6 91 0.5 NNW 17 20 9 11 1015.9 - 8.2
26/06:30am 5.1 0.5 3.8 91 0.5 NNW 17 20 9 11 1015.8 - 8.2
26/06:00am 5.1 0.5 3.8 91 0.5 NNW 17 19 9 10 1015.8 1016.0 8.2
26/05:30am 5.8 1.0 4.4 91 0.6 NNW 19 22 10 12 1015.7 - 8.2
26/05:00am 4.6 0.3 3.4 92 0.5 NNW 15 20 8 11 1015.6 - 8.2
26/04:30am 4.8 0.2 3.5 91 0.5 NW 17 20 9 11 1015.7 - 8.0
26/04:00am 4.6 0.3 3.3 91 0.5 NW 15 19 8 10 1015.8 - 8.0
26/03:30am 4.7 0.4 3.4 91 0.5 NNW 15 19 8 10 1016.0 - 8.0
26/03:00am 4.6 -0.1 3.3 91 0.5 NNW 17 19 9 10 1016.1 1016.3 8.0
26/02:30am 4.8 0.1 3.1 89 0.7 NNW 17 20 9 11 1016.4 - 8.0
26/02:00am 5.1 0.9 3.6 90 0.6 NW 15 19 8 10 1016.4 - 8.0
26/01:30am 5.9 1.3 3.9 87 0.8 WNW 17 20 9 11 1016.6 - 8.0
26/01:00am 5.6 1.1 4.2 91 0.6 WNW 17 20 9 11 1016.7 - 8.0
26/12:30am 4.5 0.1 2.7 88 0.7 NNW 15 17 8 9 1016.9 - 8.0
26/12:00am 6.1 1.1 3.6 84 1.1 NW 19 20 10 11 1016.9 1017.1 8.0
 
Date/Time
CST
Temp
°C
App
Temp
°C
Dew
Point
°C
Rel
Hum
%
Delta-T
°C
Wind Press
QNH
hPa
Press
MSL
hPa
Rain since
9am
mm
Dir  Spd
km/h
Gust
km/h
Spd
kts
Gust
kts
25/11:30pm 6.1 1.5 3.8 85 1.0 WNW 17 20 9 11 1017.0 - 8.0
25/11:00pm 6.6 2.0 3.8 82 1.2 WNW 17 20 9 11 1016.9 - 8.0
25/10:30pm 7.5 2.5 4.6 82 1.3 W 20 26 11 14 1016.7 - 8.0
25/10:00pm 7.8 2.9 4.9 82 1.3 W 20 24 11 13 1016.7 - 8.0
25/09:30pm 8.6 3.3 5.0 78 1.6 W 22 28 12 15 1016.6 - 8.0
25/09:00pm 9.4 3.2 2.3 61 3.0 W 24 32 13 17 1016.5 1016.7 8.0
25/08:30pm 9.3 3.2 2.6 63 2.9 W 24 30 13 16 1016.2 - 8.0
25/08:00pm 9.6 4.1 7.5 87 1.0 W 26 30 14 16 1016.0 - 8.0
25/07:30pm 10.1 4.7 8.0 87 1.0 W 26 32 14 17 1015.8 - 7.8
25/07:00pm 10.0 5.5 8.4 90 0.8 W 22 28 12 15 1015.6 - 7.6
25/06:30pm 10.1 6.3 8.9 92 0.6 W 19 22 10 12 1015.1 - 7.6
25/06:00pm 10.1 5.6 8.7 91 0.7 WSW 22 32 12 17 1014.9 1015.1 7.4
25/05:30pm 10.8 6.1 9.2 90 0.8 W 24 35 13 19 1014.4 - 6.6
25/05:00pm 11.3 6.7 9.6 89 0.9 W 24 35 13 19 1013.9 - 6.0
25/04:30pm 11.5 4.1 9.9 90 0.8 W 39 54 21 29 1013.3 - 6.0
25/04:03pm 12.0 4.2 9.6 85 1.2 W 41 63 22 34 1013.2 - 2.2
25/04:00pm 12.5 5.1 10.0 85 1.3 NW 39 57 21 31 1012.5 - 1.4
25/03:36pm 12.9 4.6 9.5 80 1.7 NW 43 61 23 33 1012.1 - 1.4
25/03:30pm 12.8 4.9 9.4 80 1.7 NW 41 57 22 31 1012.1 - 1.4
25/03:00pm 12.8 6.1 9.8 82 1.5 NW 35 65 19 35 1012.7 1012.8 1.2
25/02:30pm 11.6 3.4 9.7 88 1.0 NW 43 61 23 33 1012.9 - 0.8
25/02:28pm 11.6 3.3 9.5 87 1.1 NW 43 61 23 33 1012.9 - 0.8
25/02:00pm 12.3 3.9 9.1 81 1.6 NNW 43 57 23 31 1012.9 - 0.0
25/01:37pm 13.3 4.8 8.6 73 2.4 NW 43 61 23 33 1013.2 - 0.0
25/01:30pm 13.8 6.3 9.5 75 2.2 NW 39 54 21 29 1013.2 - 0.0
25/01:02pm 12.3 4.5 8.4 77 1.9 NW 39 57 21 31 1014.1 - 0.0
25/01:00pm 12.7 4.9 8.4 75 2.1 NW 39 54 21 29 1014.1 - 0.0
25/12:30pm 12.7 6.1 8.4 75 2.1 NW 33 46 18 25 1014.3 - 0.0
25/12:22pm 12.9 4.7 8.4 74 2.2 NW 41 59 22 32 1014.4 - 0.0
25/12:00pm 13.3 6.0 8.8 74 2.3 NW 37 50 20 27 1014.8 1015.0 0.0
25/11:30am 13.0 5.7 8.7 75 2.2 NW 37 48 20 26 1015.0 - 0.0
25/11:00am 12.4 4.7 8.5 77 1.9 NW 39 48 21 26 1015.6 - 0.0
25/10:30am 11.9 5.3 8.6 80 1.6 NW 33 46 18 25 1015.8 - 0.0
25/10:00am 10.8 4.0 7.7 81 1.5 NW 33 44 18 24 1016.1 - 0.0
25/09:30am 10.2 4.0 7.8 85 1.2 NW 30 39 16 21 1016.0 - 0.0
25/09:00am 8.9 3.3 7.0 88 0.9 NW 26 33 14 18 1015.8 1016.0 6.4
25/08:30am 7.8 2.0 6.1 89 0.8 NNW 26 33 14 18 1015.6 - 6.4
25/08:00am 7.1 0.8 5.7 91 0.6 NNW 28 35 15 19 1015.5 - 6.4
25/07:30am 6.5 0.8 5.1 91 0.6 NNW 24 30 13 16 1015.4 - 6.4
25/07:00am 6.3 1.0 4.9 91 0.6 NNW 22 30 12 16 1015.4 - 6.4
25/06:30am 6.4 1.5 5.0 91 0.6 NNW 20 28 11 15 1015.4 - 6.4
25/06:00am 6.7 1.5 5.5 92 0.5 NNW 22 28 12 15 1015.1 1015.3 6.4
25/05:30am 6.5 2.2 5.3 92 0.5 NNW 17 24 9 13 1015.2 - 6.4
25/05:00am 6.9 2.7 5.7 92 0.5 NW 17 22 9 12 1015.2 - 6.4
25/04:30am 6.4 2.4 4.9 90 0.7 NW 15 19 8 10 1014.8 - 6.4
25/04:00am 7.1 2.9 5.7 91 0.6 WNW 17 22 9 12 1014.7 - 6.4
25/03:30am 6.9 2.3 5.5 91 0.6 NW 19 26 10 14 1014.8 - 6.4
25/03:00am 7.1 2.9 5.6 90 0.7 WNW 17 22 9 12 1014.9 1015.1 6.4
25/02:30am 6.6 2.6 4.8 88 0.8 NW 15 19 8 10 1015.0 - 6.4
25/02:00am 8.0 3.2 5.8 86 1.0 WNW 20 24 11 13 1015.0 - 6.4
25/01:30am 8.4 2.9 6.0 85 1.1 W 24 28 13 15 1015.0 - 6.4
25/01:00am 8.0 2.6 6.3 89 0.8 WNW 24 33 13 18 1014.7 - 6.4
25/12:30am 8.3 2.5 6.4 88 0.9 WNW 26 33 14 18 1014.6 - 6.4
25/12:00am 8.1 1.8 5.7 85 1.1 WNW 28 35 15 19 1014.3 1014.5 6.4
 
Date/Time
CST
Temp
°C
App
Temp
°C
Dew
Point
°C
Rel
Hum
%
Delta-T
°C
Wind Press
QNH
hPa
Press
MSL
hPa
Rain since
9am
mm
Dir  Spd
km/h
Gust
km/h
Spd
kts
Gust
kts
24/11:30pm 8.6 2.0 6.1 84 1.1 WNW 30 41 16 22 1014.2 - 6.4
24/11:00pm 8.9 1.9 6.0 82 1.3 WNW 32 41 17 22 1013.8 - 6.4
24/10:30pm 8.7 1.1 6.0 83 1.2 WNW 35 43 19 23 1013.4 - 6.4
24/10:00pm 9.3 1.7 6.0 80 1.5 WNW 35 46 19 25 1013.1 - 6.4
24/09:30pm 9.6 2.2 6.7 82 1.4 WNW 35 46 19 25 1012.8 - 6.4
24/09:00pm 9.4 2.3 6.5 82 1.4 WNW 33 41 18 22 1012.7 1012.8 6.4
24/08:31pm 9.7 2.0 7.0 83 1.3 WNW 37 56 20 30 1012.8 - 6.0
24/08:30pm 9.7 2.4 7.0 83 1.3 WNW 35 50 19 27 1012.8 - 6.0
24/08:00pm 9.7 2.3 6.8 82 1.4 WNW 35 44 19 24 1012.3 - 5.4
24/07:30pm 10.2 2.7 6.5 78 1.7 W 35 50 19 27 1011.9 - 5.4
24/07:00pm 10.3 3.2 6.5 77 1.8 WNW 33 46 18 25 1011.4 - 5.4
24/06:30pm 10.4 2.1 6.2 75 2.0 WNW 39 50 21 27 1011.0 - 5.4
24/06:07pm 9.8 1.8 5.8 76 1.8 WNW 37 56 20 30 1010.6 - 5.4
24/06:00pm 9.9 1.6 5.9 76 1.8 WNW 39 54 21 29 1010.3 1010.4 5.4
24/05:39pm 10.4 1.7 6.2 75 2.0 WNW 41 65 22 35 1010.1 - 5.2
24/05:30pm 10.6 2.3 6.0 73 2.1 WNW 39 54 21 29 1009.8 - 5.2
24/05:00pm 11.0 2.6 5.7 70 2.5 WNW 39 56 21 30 1009.5 - 5.2
24/04:30pm 11.7 3.0 5.8 67 2.8 WNW 41 54 22 29 1009.2 - 5.2
24/04:00pm 11.8 1.9 5.0 63 3.1 WNW 46 61 25 33 1009.0 - 5.2
24/03:30pm 12.1 2.7 4.6 60 3.4 WNW 43 61 23 33 1008.6 - 5.2
24/03:00pm 11.7 3.0 6.2 69 2.6 WNW 41 56 22 30 1008.6 1008.7 5.2
24/02:30pm 11.9 2.9 6.2 68 2.7 WNW 43 59 23 32 1008.5 - 5.2
24/02:00pm 12.1 2.2 5.0 62 3.3 WNW 46 65 25 35 1008.5 - 5.2
24/01:57pm 12.2 2.7 5.1 62 3.3 WNW 44 65 24 35 1008.4 - 5.2
24/01:30pm 11.7 2.0 5.6 66 2.8 W 46 61 25 33 1008.3 - 5.2
24/01:00pm 11.3 3.2 7.0 75 2.1 WNW 39 54 21 29 1008.6 - 5.2
24/12:30pm 10.5 2.4 6.8 78 1.8 WNW 39 50 21 27 1008.8 - 5.2
24/12:00pm 10.5 2.9 7.4 81 1.5 NW 37 50 20 27 1009.1 1009.2 5.2
24/11:30am 9.8 3.6 7.7 87 1.0 NW 30 39 16 21 1009.3 - 5.2
24/11:00am 8.4 2.0 6.9 90 0.7 NW 30 39 16 21 1009.5 - 5.2
24/10:30am 8.2 1.1 6.5 89 0.8 WNW 33 50 18 27 1009.8 - 4.0
24/10:26am 8.1 -0.2 6.2 88 0.9 WNW 39 57 21 31 1009.8 - 3.6
24/10:25am 8.2 -0.4 6.3 88 0.9 NW 41 57 22 31 1009.8 - 3.4
24/10:03am 8.6 1.2 6.6 87 0.9 NNW 35 54 19 29 1009.6 - 2.2
24/10:00am 8.6 1.5 6.6 87 0.9 NNW 33 41 18 22 1009.4 - 1.8
24/09:30am 9.4 1.1 6.3 81 1.4 NNW 39 54 21 29 1008.5 - 0.0
24/09:00am 10.0 2.9 6.2 77 1.8 N 33 46 18 25 1008.4 1008.5 0.2
24/08:30am 9.3 2.3 6.0 80 1.5 N 32 44 17 24 1008.6 - 0.2
24/08:00am 8.7 2.1 6.0 83 1.2 N 30 37 16 20 1008.7 - 0.2
24/07:30am 8.3 2.4 5.8 84 1.1 N 26 37 14 20 1009.2 - 0.2
24/07:00am 8.5 2.2 5.6 82 1.3 N 28 35 15 19 1009.7 - 0.2
24/06:30am 8.4 3.2 5.5 82 1.3 N 22 30 12 16 1009.7 - 0.2
24/06:00am 7.9 3.1 5.4 84 1.1 N 20 24 11 13 1009.6 1009.7 0.2
24/05:30am 7.4 2.7 5.2 86 1.0 N 19 22 10 12 1009.6 - 0.2
24/05:00am 7.1 2.3 4.8 85 1.0 N 19 20 10 11 1010.1 - 0.2
24/04:30am 7.0 2.2 4.7 85 1.0 N 19 24 10 13 1010.3 - 0.2
24/04:00am 6.8 2.4 4.8 87 0.9 NNE 17 20 9 11 1010.8 - 0.2
24/03:30am 6.4 1.9 4.4 87 0.9 N 17 20 9 11 1011.1 - 0.2
24/03:00am 6.4 1.9 4.1 85 1.0 N 17 20 9 11 1011.4 1011.5 0.2
24/02:30am 6.5 1.6 4.3 86 0.9 N 19 20 10 11 1011.7 - 0.2
24/02:00am 5.9 1.8 4.1 88 0.8 N 15 19 8 10 1012.4 - 0.2
24/01:30am 5.8 1.7 4.1 89 0.7 NNE 15 17 8 9 1012.8 - 0.2
24/01:00am 6.4 2.3 4.6 88 0.8 N 15 17 8 9 1013.4 - 0.2
24/12:30am 6.9 2.6 5.1 88 0.8 N 17 19 9 10 1013.8 - 0.2
24/12:00am 6.9 2.9 5.1 88 0.8 N 15 19 8 10 1014.4 1014.6 0.0
 
Date/Time
CST
Temp
°C
App
Temp
°C
Dew
Point
°C
Rel
Hum
%
Delta-T
°C
Wind Press
QNH
hPa
Press
MSL
hPa
Rain since
9am
mm
Dir  Spd
km/h
Gust
km/h
Spd
kts
Gust
kts
23/11:30pm 6.4 2.0 4.7 89 0.7 N 17 19 9 10 1014.3 - 0.0
23/11:00pm 5.7 1.9 4.0 89 0.7 N 13 15 7 8 1014.8 - 0.0
23/10:30pm 6.1 2.0 4.4 89 0.7 N 15 17 8 9 1015.0 - 0.0
23/10:00pm 6.3 2.3 4.8 90 0.7 N 15 17 8 9 1015.2 - 0.0
23/09:30pm 6.7 2.8 5.2 90 0.7 N 15 19 8 10 1015.1 - 0.0
23/09:00pm 6.6 3.0 5.1 90 0.7 NNE 13 15 7 8 1015.2 1015.4 0.0
23/08:30pm 6.0 2.3 4.5 90 0.6 N 13 13 7 7 1015.4 - 0.0
23/08:00pm 6.2 2.9 4.7 90 0.7 N 11 13 6 7 1015.5 - 0.0
23/07:30pm 6.4 2.7 4.7 89 0.7 N 13 13 7 7 1015.4 - 0.0
23/07:00pm 6.8 3.6 5.1 89 0.7 N 11 13 6 7 1015.5 - 0.0
23/06:30pm 6.2 3.2 4.2 87 0.9 NW 9 11 5 6 1015.3 - 0.0
23/06:00pm 7.4 4.1 4.7 83 1.2 WSW 11 13 6 7 1014.9 1015.1 0.0
23/05:30pm 8.5 5.3 5.3 80 1.4 WNW 11 11 6 6 1015.0 - 0.0
23/05:00pm 10.4 6.6 5.8 73 2.1 W 15 19 8 10 1014.7 - 0.0
23/04:30pm 10.5 7.3 5.3 70 2.4 W 11 15 6 8 1014.7 - 0.0
23/04:00pm 11.5 7.5 4.7 63 3.1 WNW 15 17 8 9 1014.8 - 0.0
23/03:30pm 11.6 7.0 5.5 66 2.8 W 19 24 10 13 1014.8 - 0.0
23/03:00pm 11.1 6.7 4.6 64 2.9 W 17 24 9 13 1014.7 1014.9 0.0
23/02:30pm 12.2 7.5 5.1 62 3.3 WSW 19 24 10 13 1014.5 - 0.0
23/02:00pm 12.2 7.4 4.4 59 3.5 W 19 22 10 12 1014.5 - 0.0
23/01:30pm 12.6 7.9 5.1 60 3.5 W 19 20 10 11 1014.6 - 0.0
23/01:00pm 11.7 7.2 4.2 60 3.4 SW 17 24 9 13 1014.6 - 0.0
23/12:30pm 12.0 7.5 5.9 66 2.9 SW 19 26 10 14 1014.6 - 0.0
23/12:00pm 11.6 7.4 5.7 67 2.7 SW 17 22 9 12 1014.8 1015.0 0.0
23/11:30am 11.3 7.4 5.4 67 2.7 WSW 15 22 8 12 1015.0 - 0.0
23/11:00am 11.9 7.7 5.8 66 2.9 WSW 17 24 9 13 1015.0 - 0.0
23/10:30am 11.8 7.3 6.1 68 2.7 SW 19 24 10 13 1014.8 - 0.0

Latest Capital City Observations: Canberra | Sydney | Melbourne | Brisbane | Adelaide | Perth | Hobart | Darwin

Other Formats:

Comma delimited format used in spreadsheet applications
http://www.bom.gov.au/fwo/IDS60901/IDS60901.95671.axf

JavaScript Object Notation format (JSON) in row-major order
http://www.bom.gov.au/fwo/IDS60901/IDS60901.95671.json